Terminal Aerodrome Forecast
Issued by NWS Sioux Falls, SD

Home | Current Version | Previous Version | Text Only | Print | Product List | Glossary On
Versions: 1 2 3 4 5 6 7 8 9 10 11 12 13 14 15 16 17 18 19 20
000
FTUS43 KFSD 261120
TAFSUX
TAF
KSUX 261120Z 2612/2712 VRB03KT P6SM SCT200
      TEMPO 2612/2613 1SM BR
     FM261900 12007KT P6SM BKN250
     FM262100 12009KT P6SM BKN250 PROB30 2702/2705 4SM TSRA OVC040CB
     FM270500 12007KT P6SM SHRA VCTS BKN080CB
     FM270900 12009KT 5SM SHRA VCTS OVC030CB
     FM271000 12009KT P6SM OVC025=

USA.gov is the U.S. government's official web portal to all federal, state and local government web resources and services.